createdAt,value
2023-07-18T00:01:55.695Z,88.80
2023-07-18T00:04:22.116Z,88.58
2023-07-18T00:06:48.547Z,88.37
2023-07-18T00:09:14.937Z,88.54
2023-07-18T00:11:41.374Z,88.83
2023-07-18T00:14:07.917Z,89.61
2023-07-18T00:16:34.783Z,90.37
2023-07-18T00:19:01.462Z,90.70
2023-07-18T00:21:28.056Z,90.44
2023-07-18T00:23:54.543Z,90.37
2023-07-18T00:26:21.128Z,90.48
2023-07-18T00:28:47.668Z,90.69
2023-07-18T00:31:15.490Z,90.27
2023-07-18T00:33:42.030Z,89.99
2023-07-18T00:36:08.451Z,90.17
2023-07-18T00:38:34.843Z,90.08
2023-07-18T00:41:02.094Z,89.99
2023-07-18T00:43:31.626Z,89.32
2023-07-18T00:45:58.142Z,88.59
2023-07-18T00:48:27.554Z,88.55
2023-07-18T00:50:54.110Z,88.63
2023-07-18T00:53:22.857Z,88.94
2023-07-18T00:55:50.094Z,89.78
2023-07-18T00:58:17.987Z,89.66
2023-07-18T01:00:44.497Z,90.07
2023-07-18T01:03:11.194Z,89.81
2023-07-18T01:05:37.788Z,90.26
2023-07-18T01:08:04.246Z,90.43
2023-07-18T01:10:31.997Z,89.96
2023-07-18T01:13:00.149Z,89.31
2023-07-18T01:15:30.540Z,89.07
2023-07-18T01:17:57.074Z,89.10
2023-07-18T01:20:24.569Z,88.83
2023-07-18T01:22:52.867Z,89.35
2023-07-18T01:25:19.417Z,89.48
2023-07-18T01:27:50.131Z,90.60
2023-07-18T01:30:17.746Z,91.34
2023-07-18T01:32:44.180Z,90.20
2023-07-18T01:35:10.662Z,89.40
2023-07-18T01:37:38.159Z,89.80
2023-07-18T01:40:06.644Z,89.41
2023-07-18T01:42:33.082Z,89.18
2023-07-18T01:44:59.798Z,89.40
2023-07-18T01:47:26.465Z,89.68
2023-07-18T01:49:52.873Z,88.90
2023-07-18T01:52:19.310Z,89.07
2023-07-18T01:54:45.830Z,88.83
2023-07-18T01:57:12.368Z,88.95
2023-07-18T01:59:39.006Z,89.01
2023-07-18T02:02:05.469Z,90.12
2023-07-18T02:04:32.077Z,90.72
2023-07-18T02:06:58.519Z,90.52
2023-07-18T02:09:24.976Z,89.95
2023-07-18T02:11:51.536Z,90.67
2023-07-18T02:14:17.944Z,91.26
2023-07-18T02:16:44.435Z,92.02
2023-07-18T02:19:10.902Z,92.11
2023-07-18T02:21:37.409Z,92.11
2023-07-18T02:24:03.963Z,91.98
2023-07-18T02:26:30.482Z,91.76
2023-07-18T02:28:56.879Z,91.63
2023-07-18T02:31:24.988Z,92.20
2023-07-18T02:33:51.618Z,91.94
2023-07-18T02:36:18.140Z,91.62
2023-07-18T02:38:44.577Z,91.14
2023-07-18T02:41:11.005Z,90.84
2023-07-18T02:43:37.466Z,90.19
2023-07-18T02:46:04.005Z,89.72
2023-07-18T02:48:30.433Z,89.68
2023-07-18T02:50:56.852Z,89.36
2023-07-18T02:53:23.230Z,89.13
2023-07-18T02:55:49.618Z,89.37
2023-07-18T02:58:16.101Z,89.13
2023-07-18T03:00:42.675Z,88.76
2023-07-18T03:03:09.308Z,89.01
2023-07-18T03:05:35.854Z,89.11
2023-07-18T03:08:02.521Z,89.17
2023-07-18T03:10:28.957Z,88.58
2023-07-18T03:12:55.465Z,88.67
2023-07-18T03:15:21.898Z,88.91
2023-07-18T03:17:48.425Z,89.22
2023-07-18T03:20:14.979Z,88.59
2023-07-18T03:22:41.458Z,89.35
2023-07-18T03:25:08.262Z,89.17
2023-07-18T03:27:34.736Z,89.24
2023-07-18T03:30:01.241Z,89.38
2023-07-18T03:32:29.672Z,88.63
2023-07-18T03:34:56.300Z,89.10
2023-07-18T03:37:25.782Z,88.89
2023-07-18T03:39:52.236Z,87.91
2023-07-18T03:42:18.714Z,88.03
2023-07-18T03:44:45.135Z,88.20
2023-07-18T03:47:20.776Z,88.00
2023-07-18T03:49:47.792Z,89.27
2023-07-18T03:52:14.267Z,88.62
2023-07-18T03:54:40.679Z,88.46
2023-07-18T03:57:07.177Z,88.20
2023-07-18T03:59:33.729Z,87.79
2023-07-18T04:02:00.167Z,89.14
2023-07-18T04:04:26.722Z,90.42
2023-07-18T04:06:53.513Z,90.15
2023-07-18T04:09:19.915Z,90.41
2023-07-18T04:11:46.441Z,90.38
2023-07-18T04:14:13.246Z,89.51
2023-07-18T04:16:39.790Z,89.05
2023-07-18T04:19:06.406Z,88.54
2023-07-18T04:21:33.597Z,89.17
2023-07-18T04:24:00.266Z,89.60
2023-07-18T04:26:26.811Z,90.17
2023-07-18T04:28:53.276Z,90.36
2023-07-18T04:31:19.918Z,90.31
2023-07-18T04:33:46.810Z,89.84
2023-07-18T04:36:13.226Z,88.97
2023-07-18T04:38:39.915Z,87.28
2023-07-18T04:41:06.419Z,88.72
2023-07-18T04:43:33.032Z,88.05
2023-07-18T04:45:59.458Z,87.62
2023-07-18T04:48:26.387Z,87.11
2023-07-18T04:50:59.974Z,88.07
2023-07-18T04:53:27.099Z,86.22
2023-07-18T04:55:53.891Z,87.48
2023-07-18T04:58:20.478Z,87.56
2023-07-18T05:00:47.160Z,88.34
2023-07-18T05:03:13.936Z,88.50
2023-07-18T05:05:40.491Z,88.66
2023-07-18T05:08:07.054Z,88.89
2023-07-18T05:10:33.476Z,88.09
2023-07-18T05:13:00.220Z,88.56
2023-07-18T05:15:26.755Z,88.35
2023-07-18T05:17:53.158Z,88.66
2023-07-18T05:20:19.674Z,87.72
2023-07-18T05:22:46.525Z,86.65
2023-07-18T05:25:14.214Z,88.36
2023-07-18T05:27:41.490Z,86.84
2023-07-18T05:30:15.204Z,85.19
2023-07-18T05:32:42.411Z,85.46
2023-07-18T05:35:09.044Z,86.68
2023-07-18T05:37:35.706Z,84.74
2023-07-18T05:40:02.384Z,83.97
2023-07-18T05:42:28.861Z,83.24
2023-07-18T05:44:55.309Z,86.33
2023-07-18T05:47:21.885Z,85.86
2023-07-18T05:49:48.319Z,84.11
2023-07-18T05:52:15.010Z,83.35
2023-07-18T05:54:41.597Z,84.71
2023-07-18T05:57:09.128Z,81.35
2023-07-18T05:59:35.637Z,82.35
2023-07-18T06:02:02.281Z,83.66
2023-07-18T06:04:28.784Z,81.31
2023-07-18T06:06:55.261Z,82.41
2023-07-18T06:09:21.810Z,80.20
2023-07-18T06:11:48.384Z,80.07
2023-07-18T06:14:15.037Z,81.59
2023-07-18T06:16:42.698Z,80.29
2023-07-18T06:19:09.344Z,78.19
2023-07-18T06:21:35.823Z,79.61
2023-07-18T06:24:16.784Z,79.08
2023-07-18T06:26:45.628Z,78.33
2023-07-18T06:29:13.220Z,79.38
2023-07-18T06:31:39.622Z,78.48
2023-07-18T06:34:06.071Z,76.79
2023-07-18T06:36:32.687Z,77.38
2023-07-18T06:38:59.278Z,77.51
2023-07-18T06:41:25.769Z,78.81
2023-07-18T06:43:52.258Z,76.52
2023-07-18T06:46:18.764Z,79.02
2023-07-18T06:48:45.239Z,78.35
2023-07-18T06:51:11.728Z,76.12
2023-07-18T06:53:47.121Z,76.82
2023-07-18T06:56:13.607Z,76.81
2023-07-18T06:58:40.152Z,76.10
2023-07-18T07:01:06.641Z,73.99
2023-07-18T07:03:33.279Z,76.33
2023-07-18T07:05:59.815Z,75.50
2023-07-18T07:08:26.301Z,74.84
2023-07-18T07:11:03.351Z,75.02
2023-07-18T07:13:29.924Z,74.28
2023-07-18T07:15:56.516Z,76.35
2023-07-18T07:18:23.552Z,76.61
2023-07-18T07:20:51.290Z,74.49
2023-07-18T07:23:17.887Z,74.41
2023-07-18T07:25:44.513Z,74.43
2023-07-18T07:28:11.094Z,74.43
2023-07-18T07:30:37.577Z,73.37
2023-07-18T07:33:04.646Z,74.83
2023-07-18T07:35:31.089Z,72.62
2023-07-18T07:37:57.595Z,75.27
2023-07-18T07:40:24.262Z,74.64
2023-07-18T07:42:50.936Z,72.94
2023-07-18T07:45:17.580Z,74.11
2023-07-18T07:47:44.185Z,73.42
2023-07-18T07:50:10.732Z,77.50
2023-07-18T07:52:37.184Z,73.20
2023-07-18T07:55:03.854Z,75.42
2023-07-18T07:57:30.523Z,73.94
2023-07-18T07:59:56.976Z,73.80
2023-07-18T08:02:23.734Z,73.59
2023-07-18T08:04:50.308Z,77.49
2023-07-18T08:07:16.881Z,76.04
2023-07-18T08:09:43.562Z,74.78
2023-07-18T08:12:10.936Z,70.48
2023-07-18T08:14:37.385Z,71.01
2023-07-18T08:17:04.297Z,72.15
2023-07-18T08:19:30.754Z,72.02
2023-07-18T08:21:57.215Z,71.63
2023-07-18T08:24:23.619Z,74.38
2023-07-18T08:26:50.080Z,71.91
2023-07-18T08:29:16.942Z,71.73
2023-07-18T08:31:43.787Z,75.88
2023-07-18T08:34:10.369Z,70.39
2023-07-18T08:36:36.783Z,71.20
2023-07-18T08:39:06.847Z,67.03
2023-07-18T08:41:38.029Z,66.15
2023-07-18T08:44:04.683Z,66.88
2023-07-18T08:46:31.269Z,66.12
2023-07-18T08:48:58.301Z,70.39
2023-07-18T08:51:24.910Z,67.46
2023-07-18T08:53:51.344Z,64.49
2023-07-18T08:56:17.855Z,65.27
2023-07-18T08:58:44.330Z,63.75
2023-07-18T09:01:10.760Z,61.23
2023-07-18T09:03:37.193Z,67.26
2023-07-18T09:06:03.927Z,67.57
2023-07-18T09:08:42.803Z,64.33
2023-07-18T09:11:09.265Z,65.69
2023-07-18T09:13:42.186Z,66.04
2023-07-18T09:16:18.736Z,65.02
2023-07-18T09:18:50.252Z,63.67
2023-07-18T09:21:17.692Z,66.79
2023-07-18T09:23:45.311Z,66.28
2023-07-18T09:26:13.452Z,67.69
2023-07-18T09:28:39.967Z,63.82
2023-07-18T09:31:19.548Z,64.50
2023-07-18T09:33:47.198Z,63.76
2023-07-18T09:36:20.726Z,64.09
2023-07-18T09:38:47.556Z,67.30
2023-07-18T09:41:15.992Z,65.27
2023-07-18T09:43:42.783Z,60.71
2023-07-18T09:46:13.259Z,60.39
2023-07-18T09:51:11.272Z,63.37
2023-07-18T09:53:39.473Z,65.83
2023-07-18T09:56:07.845Z,65.10
2023-07-18T09:58:37.371Z,62.61
2023-07-18T10:01:05.178Z,63.70
2023-07-18T10:03:32.010Z,64.03
2023-07-18T10:05:58.620Z,64.60
2023-07-18T10:11:27.153Z,61.36
2023-07-18T10:14:23.232Z,58.88
2023-07-18T10:16:55.905Z,59.19
2023-07-18T10:19:23.154Z,59.37
2023-07-18T10:21:51.745Z,60.20
2023-07-18T10:24:21.382Z,59.16
2023-07-18T10:27:20.220Z,63.81
2023-07-18T10:30:03.261Z,63.15
2023-07-18T10:32:33.690Z,60.13
2023-07-18T10:35:00.841Z,58.55
2023-07-18T10:37:29.907Z,57.18
2023-07-18T10:39:57.196Z,63.58
2023-07-18T10:42:25.469Z,61.78
2023-07-18T10:44:55.040Z,50.87
2023-07-18T10:47:21.986Z,52.63
2023-07-18T10:49:48.589Z,54.74
2023-07-18T10:52:15.729Z,53.54
2023-07-18T10:54:52.328Z,52.41
2023-07-18T10:57:25.326Z,58.48
2023-07-18T10:59:52.524Z,62.28
2023-07-18T11:02:19.528Z,59.37
2023-07-18T11:04:46.765Z,54.83
2023-07-18T11:07:13.283Z,58.94
2023-07-18T11:09:40.508Z,56.56
2023-07-18T11:12:07.858Z,57.17
2023-07-18T11:14:40.661Z,60.23
2023-07-18T11:17:11.437Z,56.41
2023-07-18T11:19:38.127Z,61.52
2023-07-18T11:22:06.143Z,56.61
2023-07-18T11:24:33.591Z,50.82
2023-07-18T11:27:15.412Z,52.24
2023-07-18T11:30:02.025Z,60.96
2023-07-18T11:32:42.045Z,58.42
2023-07-18T11:35:12.691Z,56.85
2023-07-18T11:37:42.560Z,49.92
2023-07-18T11:40:10.366Z,51.91
2023-07-18T11:42:47.145Z,54.50
2023-07-18T11:45:15.561Z,60.93
2023-07-18T11:47:42.758Z,49.33
2023-07-18T11:50:09.983Z,50.70
2023-07-18T11:52:36.424Z,46.36
2023-07-18T11:55:02.957Z,45.82
2023-07-18T11:57:29.467Z,40.75
2023-07-18T11:59:55.972Z,40.19
2023-07-18T12:02:24.069Z,46.87
2023-07-18T12:04:52.531Z,48.85
2023-07-18T12:07:18.985Z,46.42
2023-07-18T12:09:45.506Z,48.77
2023-07-18T12:12:12.049Z,46.81
2023-07-18T12:14:38.739Z,53.10
2023-07-18T12:17:05.566Z,48.21
2023-07-18T12:19:32.309Z,44.90
2023-07-18T12:21:58.864Z,46.99
2023-07-18T12:24:25.321Z,49.38
2023-07-18T12:26:51.853Z,52.22
2023-07-18T12:29:18.356Z,44.27
2023-07-18T12:31:45.611Z,44.90
2023-07-18T12:34:12.390Z,50.65
2023-07-18T12:36:38.836Z,46.95
2023-07-18T12:39:05.421Z,50.68
2023-07-18T12:41:32.143Z,47.23
2023-07-18T12:43:58.654Z,39.75
2023-07-18T12:46:25.125Z,37.66
2023-07-18T12:51:29.646Z,35.86
2023-07-18T12:53:56.108Z,37.89
2023-07-18T12:56:22.700Z,37.92
2023-07-18T12:58:49.204Z,39.88
2023-07-18T13:01:15.739Z,39.30
2023-07-18T13:03:42.288Z,34.31
2023-07-18T13:06:09.088Z,36.07
2023-07-18T13:08:35.611Z,32.26
2023-07-18T13:11:02.231Z,33.26
2023-07-18T13:13:28.699Z,34.06
2023-07-18T13:15:55.267Z,35.13
2023-07-18T13:18:21.719Z,34.77
2023-07-18T13:20:48.633Z,37.74
2023-07-18T13:23:15.218Z,32.87
2023-07-18T13:25:41.693Z,29.28
2023-07-18T13:28:08.584Z,29.42
2023-07-18T13:30:36.556Z,25.58
2023-07-18T13:33:03.068Z,28.99
2023-07-18T13:35:29.641Z,29.01
2023-07-18T13:37:56.183Z,30.24
2023-07-18T13:40:23.331Z,29.12
2023-07-18T13:42:49.860Z,30.40
2023-07-18T13:45:16.365Z,29.73
2023-07-18T13:47:44.660Z,31.13
2023-07-18T13:52:40.695Z,28.20
2023-07-18T13:55:07.457Z,30.57
2023-07-18T13:57:33.976Z,29.95
2023-07-18T14:00:00.409Z,28.52
2023-07-18T14:02:26.990Z,28.37
2023-07-18T14:04:53.598Z,26.38
2023-07-18T14:07:20.046Z,28.15
2023-07-18T14:09:46.512Z,25.74
2023-07-18T14:12:14.108Z,26.99
2023-07-18T14:14:40.712Z,27.39
2023-07-18T14:17:07.253Z,27.19
2023-07-18T14:19:33.662Z,25.14
2023-07-18T14:22:00.301Z,26.60
2023-07-18T14:24:26.826Z,25.95
2023-07-18T14:26:53.548Z,25.16
2023-07-18T14:29:20.033Z,25.54
2023-07-18T14:31:46.545Z,24.00
2023-07-18T14:34:13.150Z,25.72
2023-07-18T14:36:39.648Z,25.97
2023-07-18T14:39:06.195Z,26.60
2023-07-18T14:41:32.637Z,27.27
2023-07-18T14:43:59.155Z,25.92
2023-07-18T14:46:25.830Z,23.97
2023-07-18T14:48:52.511Z,24.74
2023-07-18T14:51:19.119Z,25.10
2023-07-18T14:53:45.743Z,23.91
2023-07-18T14:56:12.300Z,23.27
2023-07-18T14:58:38.882Z,22.41
2023-07-18T15:01:05.525Z,23.12
2023-07-18T15:03:32.193Z,25.03
2023-07-18T15:05:58.633Z,24.20
2023-07-18T15:08:25.106Z,26.90
2023-07-18T15:10:51.628Z,23.95
2023-07-18T15:13:18.070Z,22.51
2023-07-18T15:15:46.047Z,22.55
2023-07-18T15:18:13.077Z,21.43
2023-07-18T15:20:39.596Z,20.02
2023-07-18T15:23:06.241Z,21.03
2023-07-18T15:25:32.965Z,19.15
2023-07-18T15:27:59.498Z,19.31
2023-07-18T15:30:26.298Z,18.98
2023-07-18T15:32:54.424Z,19.49
2023-07-18T15:35:21.029Z,17.82
2023-07-18T15:37:47.479Z,18.13
2023-07-18T15:40:13.973Z,17.85
2023-07-18T15:42:40.653Z,19.47
2023-07-18T15:45:07.491Z,20.20
2023-07-18T15:47:34.362Z,20.23
2023-07-18T15:50:00.854Z,21.40
2023-07-18T15:52:27.478Z,21.60
2023-07-18T15:54:54.110Z,21.91
2023-07-18T15:57:20.620Z,21.06
2023-07-18T15:59:47.232Z,21.60
2023-07-18T16:02:13.920Z,21.18
2023-07-18T16:04:40.568Z,19.32
2023-07-18T16:07:07.020Z,19.90
2023-07-18T16:09:46.714Z,19.88
2023-07-18T16:12:13.171Z,19.57
2023-07-18T16:14:39.654Z,18.21
2023-07-18T16:17:06.246Z,20.20
2023-07-18T16:19:32.663Z,20.35
2023-07-18T16:21:59.160Z,20.34
2023-07-18T16:24:25.668Z,20.19
2023-07-18T16:29:30.618Z,19.70
2023-07-18T16:31:56.954Z,20.83
2023-07-18T16:34:24.693Z,20.72
2023-07-18T16:36:56.578Z,21.71
2023-07-18T16:39:22.998Z,23.28
2023-07-18T16:41:49.512Z,24.76
2023-07-18T16:44:17.551Z,25.86
2023-07-18T16:46:45.796Z,26.49
2023-07-18T16:49:12.234Z,26.91
2023-07-18T16:51:38.936Z,27.89
2023-07-18T16:54:05.444Z,28.06
2023-07-18T16:56:33.187Z,29.81
2023-07-18T16:59:00.773Z,30.75
2023-07-18T17:01:27.491Z,31.76
2023-07-18T17:03:54.059Z,32.60
2023-07-18T17:06:21.053Z,34.08
2023-07-18T17:08:48.129Z,35.59
2023-07-18T17:11:32.853Z,35.69
2023-07-18T17:13:59.500Z,36.40
2023-07-18T17:16:25.959Z,36.20
2023-07-18T17:18:52.457Z,38.42
2023-07-18T17:21:18.991Z,38.01
2023-07-18T17:23:47.932Z,37.44
2023-07-18T17:26:16.813Z,38.14
2023-07-18T17:28:43.451Z,37.12
2023-07-18T17:31:10.196Z,39.24
2023-07-18T17:33:39.085Z,41.55
2023-07-18T17:36:06.532Z,41.06
2023-07-18T17:38:33.107Z,40.88
2023-07-18T17:40:59.752Z,40.87
2023-07-18T17:43:26.391Z,41.34
2023-07-18T17:45:52.861Z,42.08
2023-07-18T17:48:19.303Z,42.08
2023-07-18T17:50:46.130Z,43.14
2023-07-18T17:53:13.018Z,43.35
2023-07-18T17:55:39.651Z,43.69
2023-07-18T17:58:06.017Z,43.35
2023-07-18T18:00:32.489Z,43.42
2023-07-18T18:02:59.209Z,43.26
2023-07-18T18:05:39.004Z,43.86
2023-07-18T18:11:07.683Z,45.87
2023-07-18T18:13:34.691Z,47.33
2023-07-18T18:16:08.307Z,49.80
2023-07-18T18:18:36.026Z,50.48
2023-07-18T18:21:03.099Z,49.98
2023-07-18T18:23:38.700Z,49.74
2023-07-18T18:29:01.800Z,50.17
2023-07-18T18:31:28.196Z,50.72
2023-07-18T18:33:54.684Z,52.18
2023-07-18T18:36:28.072Z,52.54
2023-07-18T18:38:54.556Z,52.77
2023-07-18T18:41:21.239Z,52.33
2023-07-18T18:43:49.258Z,52.76
2023-07-18T18:46:16.122Z,52.52
2023-07-18T18:48:42.604Z,53.12
2023-07-18T18:51:11.864Z,53.06
2023-07-18T18:53:40.526Z,54.37
2023-07-18T18:56:07.242Z,55.74
2023-07-18T18:58:36.775Z,55.55
2023-07-18T19:01:03.255Z,55.14
2023-07-18T19:03:30.161Z,52.76
2023-07-18T19:09:05.781Z,52.07
2023-07-18T19:11:32.415Z,52.28
2023-07-18T19:14:01.125Z,52.41
2023-07-18T19:16:38.853Z,52.71
2023-07-18T19:19:06.427Z,52.95
2023-07-18T19:24:13.585Z,53.78
2023-07-18T19:26:40.534Z,55.44
2023-07-18T19:29:08.047Z,58.07
2023-07-18T19:31:34.626Z,60.49
2023-07-18T19:34:01.149Z,60.31
2023-07-18T19:36:27.690Z,58.25
2023-07-18T19:38:54.329Z,56.18
2023-07-18T19:41:20.879Z,56.08
2023-07-18T19:43:47.457Z,56.19
2023-07-18T19:46:14.137Z,56.31
2023-07-18T19:48:40.658Z,56.47
2023-07-18T19:51:07.090Z,59.15
2023-07-18T19:53:33.640Z,61.44
2023-07-18T19:56:01.570Z,59.71
2023-07-18T19:58:28.002Z,58.50
2023-07-18T20:00:54.994Z,57.95
2023-07-18T20:03:21.699Z,58.03
2023-07-18T20:05:49.338Z,58.06
2023-07-18T20:08:19.881Z,58.21
2023-07-18T20:10:46.335Z,58.62
2023-07-18T20:13:12.718Z,59.17
2023-07-18T20:15:39.174Z,59.55
2023-07-18T20:18:05.720Z,59.52
2023-07-18T20:20:32.201Z,60.14
2023-07-18T20:22:58.633Z,60.40
2023-07-18T20:25:25.182Z,60.18
2023-07-18T20:27:51.531Z,60.07
2023-07-18T20:30:17.907Z,60.20
2023-07-18T20:32:44.342Z,60.32
2023-07-18T20:35:10.734Z,60.49
2023-07-18T20:37:37.168Z,60.75
2023-07-18T20:40:03.736Z,60.85
2023-07-18T20:42:30.545Z,61.11
2023-07-18T20:44:56.915Z,61.22
2023-07-18T20:47:23.442Z,61.30
2023-07-18T20:49:49.939Z,62.66
2023-07-18T20:52:16.404Z,65.62
2023-07-18T20:54:42.798Z,66.29
2023-07-18T20:57:09.218Z,64.60
2023-07-18T20:59:35.645Z,64.41
2023-07-18T21:02:02.124Z,64.86
2023-07-18T21:04:28.466Z,64.03
2023-07-18T21:06:57.662Z,63.30
2023-07-18T21:09:24.272Z,63.03
2023-07-18T21:11:50.719Z,63.03
2023-07-18T21:14:18.581Z,64.03
2023-07-18T21:16:45.623Z,64.46
2023-07-18T21:19:12.209Z,63.67
2023-07-18T21:21:38.623Z,63.26
2023-07-18T21:24:05.261Z,63.27
2023-07-18T21:26:31.686Z,63.24
2023-07-18T21:29:04.865Z,63.74
2023-07-18T21:31:32.695Z,64.33
2023-07-18T21:33:59.180Z,64.87
2023-07-18T21:36:25.570Z,65.05
2023-07-18T21:38:52.071Z,64.49
2023-07-18T21:41:18.787Z,63.99
2023-07-18T21:43:45.371Z,63.91
2023-07-18T21:46:11.865Z,64.02
2023-07-18T21:48:38.443Z,64.02
2023-07-18T21:51:04.898Z,64.06
2023-07-18T21:53:31.267Z,64.14
2023-07-18T21:55:58.072Z,64.28
2023-07-18T21:58:24.511Z,64.62
2023-07-18T22:00:51.040Z,64.53
2023-07-18T22:03:17.552Z,64.64
2023-07-18T22:05:44.273Z,64.80
2023-07-18T22:08:10.685Z,64.88
2023-07-18T22:10:37.048Z,64.97
2023-07-18T22:13:03.411Z,65.05
2023-07-18T22:15:30.329Z,65.18
2023-07-18T22:17:56.780Z,65.27
2023-07-18T22:20:23.192Z,65.33
2023-07-18T22:22:49.760Z,65.63
2023-07-18T22:25:16.248Z,65.67
2023-07-18T22:27:42.593Z,65.64
2023-07-18T22:30:09.098Z,66.05
2023-07-18T22:32:35.671Z,67.14
2023-07-18T22:35:02.083Z,66.51
2023-07-18T22:37:28.637Z,66.26
2023-07-18T22:39:55.004Z,66.27
2023-07-18T22:42:22.474Z,66.35
2023-07-18T22:44:49.130Z,66.46
2023-07-18T22:47:15.711Z,66.66
2023-07-18T22:49:42.254Z,66.72
2023-07-18T22:52:09.494Z,66.80
2023-07-18T22:54:36.283Z,67.03
2023-07-18T22:57:02.671Z,67.24
2023-07-18T22:59:29.425Z,67.30
2023-07-18T23:01:55.774Z,67.29
2023-07-18T23:04:22.276Z,68.02
2023-07-18T23:06:48.901Z,68.21
2023-07-18T23:09:15.547Z,67.70
2023-07-18T23:11:42.563Z,67.68
2023-07-18T23:14:09.078Z,67.63
2023-07-18T23:16:35.489Z,67.57
2023-07-18T23:19:01.921Z,67.55
2023-07-18T23:21:28.430Z,67.61
2023-07-18T23:23:54.821Z,67.72
2023-07-18T23:26:21.322Z,67.83
2023-07-18T23:28:47.682Z,67.84
2023-07-18T23:31:14.161Z,67.91
2023-07-18T23:33:40.714Z,67.99
2023-07-18T23:36:07.494Z,68.34
2023-07-18T23:38:33.804Z,68.28
2023-07-18T23:41:00.251Z,68.24
2023-07-18T23:43:26.650Z,68.31
2023-07-18T23:45:53.106Z,68.38
2023-07-18T23:48:19.492Z,68.49
2023-07-18T23:50:46.030Z,68.59
2023-07-18T23:53:12.545Z,68.68
2023-07-18T23:55:41.897Z,68.81
2023-07-18T23:58:08.379Z,68.82
